sensor_id;sensor_type;location;lat;lon;timestamp;temperature;humidity
24902;DHT22;31328;51.402;0.016;2023-04-28T00:00:10;12.20;99.90
24902;DHT22;31328;51.402;0.016;2023-04-28T00:02:37;12.30;99.90
24902;DHT22;31328;51.402;0.016;2023-04-28T00:05:03;12.30;99.90
24902;DHT22;31328;51.402;0.016;2023-04-28T00:07:30;12.30;99.90
24902;DHT22;31328;51.402;0.016;2023-04-28T00:09:56;12.30;99.90
24902;DHT22;31328;51.402;0.016;2023-04-28T00:12:23;12.30;99.90
24902;DHT22;31328;51.402;0.016;2023-04-28T00:14:49;12.30;99.90
24902;DHT22;31328;51.402;0.016;2023-04-28T00:17:15;12.40;99.90
24902;DHT22;31328;51.402;0.016;2023-04-28T00:19:42;12.40;99.90
24902;DHT22;31328;51.402;0.016;2023-04-28T00:22:08;12.40;99.90
24902;DHT22;31328;51.402;0.016;2023-04-28T00:24:34;12.40;99.90
24902;DHT22;31328;51.402;0.016;2023-04-28T00:27:01;12.40;99.90
24902;DHT22;31328;51.402;0.016;2023-04-28T00:29:28;12.40;99.90
24902;DHT22;31328;51.402;0.016;2023-04-28T00:31:55;12.50;99.90
24902;DHT22;31328;51.402;0.016;2023-04-28T00:34:21;12.50;99.90
24902;DHT22;31328;51.402;0.016;2023-04-28T00:36:48;12.50;99.90
24902;DHT22;31328;51.402;0.016;2023-04-28T00:39:15;12.50;99.90
24902;DHT22;31328;51.402;0.016;2023-04-28T00:41:43;12.50;99.90
24902;DHT22;31328;51.402;0.016;2023-04-28T00:44:10;12.50;99.90
24902;DHT22;31328;51.402;0.016;2023-04-28T00:46:36;12.60;99.90
24902;DHT22;31328;51.402;0.016;2023-04-28T00:49:03;12.60;99.90
24902;DHT22;31328;51.402;0.016;2023-04-28T00:51:30;12.60;99.90
24902;DHT22;31328;51.402;0.016;2023-04-28T00:53:58;12.60;99.90
24902;DHT22;31328;51.402;0.016;2023-04-28T00:56:25;12.60;99.90
24902;DHT22;31328;51.402;0.016;2023-04-28T00:58:56;12.60;99.90
24902;DHT22;31328;51.402;0.016;2023-04-28T01:01:23;12.70;99.90
24902;DHT22;31328;51.402;0.016;2023-04-28T01:03:49;12.70;99.90
24902;DHT22;31328;51.402;0.016;2023-04-28T01:06:17;12.70;99.90
24902;DHT22;31328;51.402;0.016;2023-04-28T01:08:47;12.70;99.90
24902;DHT22;31328;51.402;0.016;2023-04-28T01:11:15;12.70;99.90
24902;DHT22;31328;51.402;0.016;2023-04-28T01:14:01;12.80;99.90
24902;DHT22;31328;51.402;0.016;2023-04-28T01:16:32;12.80;99.90
24902;DHT22;31328;51.402;0.016;2023-04-28T01:19:00;12.80;99.90
24902;DHT22;31328;51.402;0.016;2023-04-28T01:21:30;12.80;99.90
24902;DHT22;31328;51.402;0.016;2023-04-28T01:24:00;12.80;99.90
24902;DHT22;31328;51.402;0.016;2023-04-28T01:26:27;12.80;99.90
24902;DHT22;31328;51.402;0.016;2023-04-28T01:28:54;12.80;99.90
24902;DHT22;31328;51.402;0.016;2023-04-28T01:31:20;12.80;99.90
24902;DHT22;31328;51.402;0.016;2023-04-28T01:33:46;12.80;99.90
24902;DHT22;31328;51.402;0.016;2023-04-28T01:36:13;12.90;99.90
24902;DHT22;31328;51.402;0.016;2023-04-28T01:38:39;12.80;99.90
24902;DHT22;31328;51.402;0.016;2023-04-28T01:41:05;12.90;99.90
24902;DHT22;31328;51.402;0.016;2023-04-28T01:43:32;12.90;99.90
24902;DHT22;31328;51.402;0.016;2023-04-28T01:45:58;12.80;99.90
24902;DHT22;31328;51.402;0.016;2023-04-28T01:48:24;12.80;99.90
24902;DHT22;31328;51.402;0.016;2023-04-28T01:50:51;12.90;99.90
24902;DHT22;31328;51.402;0.016;2023-04-28T01:53:17;12.80;99.90
24902;DHT22;31328;51.402;0.016;2023-04-28T01:55:46;12.90;99.90
24902;DHT22;31328;51.402;0.016;2023-04-28T01:58:13;12.90;99.90
24902;DHT22;31328;51.402;0.016;2023-04-28T02:00:40;12.90;99.90
24902;DHT22;31328;51.402;0.016;2023-04-28T02:03:06;12.90;99.90
24902;DHT22;31328;51.402;0.016;2023-04-28T02:05:34;12.90;99.90
24902;DHT22;31328;51.402;0.016;2023-04-28T02:08:02;12.90;99.90
24902;DHT22;31328;51.402;0.016;2023-04-28T02:10:29;12.90;99.90
24902;DHT22;31328;51.402;0.016;2023-04-28T02:12:56;12.90;99.90
24902;DHT22;31328;51.402;0.016;2023-04-28T02:15:22;12.90;99.90
24902;DHT22;31328;51.402;0.016;2023-04-28T02:17:48;13.00;99.90
24902;DHT22;31328;51.402;0.016;2023-04-28T02:20:15;13.00;99.90
24902;DHT22;31328;51.402;0.016;2023-04-28T02:22:41;13.00;99.90
24902;DHT22;31328;51.402;0.016;2023-04-28T02:25:07;13.00;99.90
24902;DHT22;31328;51.402;0.016;2023-04-28T02:27:37;13.00;99.90
24902;DHT22;31328;51.402;0.016;2023-04-28T02:30:04;13.00;99.90
24902;DHT22;31328;51.402;0.016;2023-04-28T02:32:32;13.00;99.90
24902;DHT22;31328;51.402;0.016;2023-04-28T02:34:58;13.00;99.90
24902;DHT22;31328;51.402;0.016;2023-04-28T02:37:25;13.00;99.90
24902;DHT22;31328;51.402;0.016;2023-04-28T02:39:51;13.00;99.90
24902;DHT22;31328;51.402;0.016;2023-04-28T02:42:20;13.10;99.90
24902;DHT22;31328;51.402;0.016;2023-04-28T02:44:46;13.10;99.90
24902;DHT22;31328;51.402;0.016;2023-04-28T02:47:13;13.10;99.90
24902;DHT22;31328;51.402;0.016;2023-04-28T02:49:39;13.10;99.90
24902;DHT22;31328;51.402;0.016;2023-04-28T02:52:06;13.10;99.90
24902;DHT22;31328;51.402;0.016;2023-04-28T02:54:32;13.10;99.90
24902;DHT22;31328;51.402;0.016;2023-04-28T02:57:00;13.10;99.90
24902;DHT22;31328;51.402;0.016;2023-04-28T02:59:29;13.10;99.90
24902;DHT22;31328;51.402;0.016;2023-04-28T03:01:55;13.10;99.90
24902;DHT22;31328;51.402;0.016;2023-04-28T03:04:22;13.20;99.90
24902;DHT22;31328;51.402;0.016;2023-04-28T03:06:49;13.20;99.90
24902;DHT22;31328;51.402;0.016;2023-04-28T03:09:15;13.20;99.90
24902;DHT22;31328;51.402;0.016;2023-04-28T03:11:42;13.20;99.90
24902;DHT22;31328;51.402;0.016;2023-04-28T03:14:08;13.20;99.90
24902;DHT22;31328;51.402;0.016;2023-04-28T03:16:35;13.20;99.90
24902;DHT22;31328;51.402;0.016;2023-04-28T03:19:01;13.20;99.90
24902;DHT22;31328;51.402;0.016;2023-04-28T03:21:27;13.20;99.90
24902;DHT22;31328;51.402;0.016;2023-04-28T03:23:54;13.20;99.90
24902;DHT22;31328;51.402;0.016;2023-04-28T03:26:21;13.20;99.90
24902;DHT22;31328;51.402;0.016;2023-04-28T03:28:50;13.20;99.90
24902;DHT22;31328;51.402;0.016;2023-04-28T03:31:17;13.20;99.90
24902;DHT22;31328;51.402;0.016;2023-04-28T03:33:43;13.20;99.90
24902;DHT22;31328;51.402;0.016;2023-04-28T03:36:12;13.20;99.90
24902;DHT22;31328;51.402;0.016;2023-04-28T03:38:39;13.20;99.90
24902;DHT22;31328;51.402;0.016;2023-04-28T03:41:05;13.20;99.90
24902;DHT22;31328;51.402;0.016;2023-04-28T03:43:50;13.20;99.90
24902;DHT22;31328;51.402;0.016;2023-04-28T03:46:24;13.20;99.90
24902;DHT22;31328;51.402;0.016;2023-04-28T03:48:51;13.20;99.90
24902;DHT22;31328;51.402;0.016;2023-04-28T03:51:19;13.20;99.90
24902;DHT22;31328;51.402;0.016;2023-04-28T03:53:45;13.20;99.90
24902;DHT22;31328;51.402;0.016;2023-04-28T03:56:12;13.20;99.90
24902;DHT22;31328;51.402;0.016;2023-04-28T03:58:38;13.20;99.90
24902;DHT22;31328;51.402;0.016;2023-04-28T04:01:05;13.20;99.90
24902;DHT22;31328;51.402;0.016;2023-04-28T04:03:31;13.20;99.90
24902;DHT22;31328;51.402;0.016;2023-04-28T04:05:57;13.20;99.90
24902;DHT22;31328;51.402;0.016;2023-04-28T04:08:24;13.20;99.90
24902;DHT22;31328;51.402;0.016;2023-04-28T04:10:50;13.20;99.90
24902;DHT22;31328;51.402;0.016;2023-04-28T04:13:26;13.20;99.90
24902;DHT22;31328;51.402;0.016;2023-04-28T04:15:52;13.20;99.90
24902;DHT22;31328;51.402;0.016;2023-04-28T04:18:21;13.20;99.90
24902;DHT22;31328;51.402;0.016;2023-04-28T04:21:06;13.20;99.90
24902;DHT22;31328;51.402;0.016;2023-04-28T04:23:34;13.20;99.90
24902;DHT22;31328;51.402;0.016;2023-04-28T04:26:00;13.10;99.90
24902;DHT22;31328;51.402;0.016;2023-04-28T04:28:27;13.10;99.90
24902;DHT22;31328;51.402;0.016;2023-04-28T04:30:53;13.10;99.90
24902;DHT22;31328;51.402;0.016;2023-04-28T04:33:20;13.00;99.90
24902;DHT22;31328;51.402;0.016;2023-04-28T04:35:46;13.00;99.90
24902;DHT22;31328;51.402;0.016;2023-04-28T04:38:12;13.00;99.90
24902;DHT22;31328;51.402;0.016;2023-04-28T04:40:39;13.00;99.90
24902;DHT22;31328;51.402;0.016;2023-04-28T04:43:06;12.90;99.90
24902;DHT22;31328;51.402;0.016;2023-04-28T04:45:38;13.00;99.90
24902;DHT22;31328;51.402;0.016;2023-04-28T04:48:05;12.90;99.90
24902;DHT22;31328;51.402;0.016;2023-04-28T04:50:32;12.90;99.90
24902;DHT22;31328;51.402;0.016;2023-04-28T04:52:58;13.00;99.90
24902;DHT22;31328;51.402;0.016;2023-04-28T04:55:25;13.00;99.90
24902;DHT22;31328;51.402;0.016;2023-04-28T04:57:52;13.00;99.90
24902;DHT22;31328;51.402;0.016;2023-04-28T05:00:37;12.90;99.90
24902;DHT22;31328;51.402;0.016;2023-04-28T05:03:04;12.90;99.90
24902;DHT22;31328;51.402;0.016;2023-04-28T05:05:31;12.90;99.90
24902;DHT22;31328;51.402;0.016;2023-04-28T05:08:11;13.00;99.90
24902;DHT22;31328;51.402;0.016;2023-04-28T05:10:37;13.00;99.90
24902;DHT22;31328;51.402;0.016;2023-04-28T05:13:03;13.00;99.90
24902;DHT22;31328;51.402;0.016;2023-04-28T05:15:30;12.90;99.90
24902;DHT22;31328;51.402;0.016;2023-04-28T05:18:15;13.00;99.90
24902;DHT22;31328;51.402;0.016;2023-04-28T05:20:41;13.00;99.90
24902;DHT22;31328;51.402;0.016;2023-04-28T05:23:08;13.00;99.90
24902;DHT22;31328;51.402;0.016;2023-04-28T05:25:35;13.00;99.90
24902;DHT22;31328;51.402;0.016;2023-04-28T05:28:02;12.90;99.90
24902;DHT22;31328;51.402;0.016;2023-04-28T05:30:33;13.00;99.90
24902;DHT22;31328;51.402;0.016;2023-04-28T05:32:59;13.00;99.90
24902;DHT22;31328;51.402;0.016;2023-04-28T05:35:26;13.00;99.90
24902;DHT22;31328;51.402;0.016;2023-04-28T05:37:53;13.00;99.90
24902;DHT22;31328;51.402;0.016;2023-04-28T05:40:21;13.00;99.90
24902;DHT22;31328;51.402;0.016;2023-04-28T05:42:48;13.00;99.90
24902;DHT22;31328;51.402;0.016;2023-04-28T05:45:15;13.00;99.90
24902;DHT22;31328;51.402;0.016;2023-04-28T05:47:41;13.10;99.90
24902;DHT22;31328;51.402;0.016;2023-04-28T05:50:08;13.00;99.90
24902;DHT22;31328;51.402;0.016;2023-04-28T05:52:34;13.10;99.90
24902;DHT22;31328;51.402;0.016;2023-04-28T05:55:01;13.10;99.90
24902;DHT22;31328;51.402;0.016;2023-04-28T05:57:28;13.10;99.90
24902;DHT22;31328;51.402;0.016;2023-04-28T05:59:54;13.20;99.90
24902;DHT22;31328;51.402;0.016;2023-04-28T06:02:20;13.20;99.90
24902;DHT22;31328;51.402;0.016;2023-04-28T06:04:47;13.20;99.90
24902;DHT22;31328;51.402;0.016;2023-04-28T06:07:13;13.20;99.90
24902;DHT22;31328;51.402;0.016;2023-04-28T06:09:40;13.30;99.90
24902;DHT22;31328;51.402;0.016;2023-04-28T06:12:06;13.30;99.90
24902;DHT22;31328;51.402;0.016;2023-04-28T06:14:33;13.40;99.90
24902;DHT22;31328;51.402;0.016;2023-04-28T06:17:03;13.30;99.90
24902;DHT22;31328;51.402;0.016;2023-04-28T06:19:29;13.40;99.90
24902;DHT22;31328;51.402;0.016;2023-04-28T06:21:56;13.40;99.90
24902;DHT22;31328;51.402;0.016;2023-04-28T06:24:22;13.40;99.90
24902;DHT22;31328;51.402;0.016;2023-04-28T06:26:49;13.40;99.90
24902;DHT22;31328;51.402;0.016;2023-04-28T06:29:15;13.40;99.90
24902;DHT22;31328;51.402;0.016;2023-04-28T06:31:41;13.40;99.90
24902;DHT22;31328;51.402;0.016;2023-04-28T06:34:08;13.40;99.90
24902;DHT22;31328;51.402;0.016;2023-04-28T06:36:35;13.40;99.90
24902;DHT22;31328;51.402;0.016;2023-04-28T06:39:03;13.50;99.90
24902;DHT22;31328;51.402;0.016;2023-04-28T06:41:29;13.60;99.90
24902;DHT22;31328;51.402;0.016;2023-04-28T06:43:58;13.70;99.90
24902;DHT22;31328;51.402;0.016;2023-04-28T06:46:26;13.90;99.90
24902;DHT22;31328;51.402;0.016;2023-04-28T06:48:52;13.90;99.90
24902;DHT22;31328;51.402;0.016;2023-04-28T06:51:19;14.00;99.90
24902;DHT22;31328;51.402;0.016;2023-04-28T06:53:45;14.10;99.90
24902;DHT22;31328;51.402;0.016;2023-04-28T06:56:12;14.20;99.90
24902;DHT22;31328;51.402;0.016;2023-04-28T06:58:39;14.30;99.90
24902;DHT22;31328;51.402;0.016;2023-04-28T07:01:05;14.40;99.90
24902;DHT22;31328;51.402;0.016;2023-04-28T07:03:31;14.50;99.90
24902;DHT22;31328;51.402;0.016;2023-04-28T07:05:58;14.60;99.90
24902;DHT22;31328;51.402;0.016;2023-04-28T07:08:24;14.50;99.90
24902;DHT22;31328;51.402;0.016;2023-04-28T07:10:50;14.60;99.90
24902;DHT22;31328;51.402;0.016;2023-04-28T07:13:17;14.50;99.90
24902;DHT22;31328;51.402;0.016;2023-04-28T07:15:43;14.50;99.90
24902;DHT22;31328;51.402;0.016;2023-04-28T07:18:10;14.60;99.90
24902;DHT22;31328;51.402;0.016;2023-04-28T07:20:36;14.60;99.90
24902;DHT22;31328;51.402;0.016;2023-04-28T07:23:02;14.60;99.90
24902;DHT22;31328;51.402;0.016;2023-04-28T07:25:28;14.60;99.90
24902;DHT22;31328;51.402;0.016;2023-04-28T07:27:55;14.60;99.90
24902;DHT22;31328;51.402;0.016;2023-04-28T07:30:21;14.50;99.90
24902;DHT22;31328;51.402;0.016;2023-04-28T07:32:47;14.60;99.90
24902;DHT22;31328;51.402;0.016;2023-04-28T07:35:14;14.60;99.90
24902;DHT22;31328;51.402;0.016;2023-04-28T07:37:40;14.60;99.90
24902;DHT22;31328;51.402;0.016;2023-04-28T07:40:07;14.70;99.90
24902;DHT22;31328;51.402;0.016;2023-04-28T07:42:33;14.70;99.90
24902;DHT22;31328;51.402;0.016;2023-04-28T07:45:00;14.70;99.90
24902;DHT22;31328;51.402;0.016;2023-04-28T07:47:26;14.70;99.90
24902;DHT22;31328;51.402;0.016;2023-04-28T07:49:54;14.70;99.90
24902;DHT22;31328;51.402;0.016;2023-04-28T07:52:20;14.70;99.90
24902;DHT22;31328;51.402;0.016;2023-04-28T07:54:46;14.80;99.90
24902;DHT22;31328;51.402;0.016;2023-04-28T07:57:13;14.80;99.90
24902;DHT22;31328;51.402;0.016;2023-04-28T07:59:39;14.80;99.90
24902;DHT22;31328;51.402;0.016;2023-04-28T08:02:05;14.80;99.90
24902;DHT22;31328;51.402;0.016;2023-04-28T08:04:32;14.90;99.90
24902;DHT22;31328;51.402;0.016;2023-04-28T08:07:00;14.90;99.90
24902;DHT22;31328;51.402;0.016;2023-04-28T08:09:26;14.90;99.90
24902;DHT22;31328;51.402;0.016;2023-04-28T08:11:52;14.90;99.90
24902;DHT22;31328;51.402;0.016;2023-04-28T08:14:19;15.00;99.90
24902;DHT22;31328;51.402;0.016;2023-04-28T08:16:46;15.10;99.90
24902;DHT22;31328;51.402;0.016;2023-04-28T08:19:13;15.10;99.90
24902;DHT22;31328;51.402;0.016;2023-04-28T08:21:39;15.20;99.90
24902;DHT22;31328;51.402;0.016;2023-04-28T08:24:06;15.30;99.90
24902;DHT22;31328;51.402;0.016;2023-04-28T08:26:33;15.40;99.90
24902;DHT22;31328;51.402;0.016;2023-04-28T08:28:59;15.50;99.90
24902;DHT22;31328;51.402;0.016;2023-04-28T08:31:26;15.60;99.90
24902;DHT22;31328;51.402;0.016;2023-04-28T08:33:52;15.70;99.90
24902;DHT22;31328;51.402;0.016;2023-04-28T08:36:18;15.80;99.90
24902;DHT22;31328;51.402;0.016;2023-04-28T08:38:44;15.90;99.90
24902;DHT22;31328;51.402;0.016;2023-04-28T08:41:12;16.00;99.90
24902;DHT22;31328;51.402;0.016;2023-04-28T08:43:40;16.10;99.90
24902;DHT22;31328;51.402;0.016;2023-04-28T08:46:09;16.10;99.90
24902;DHT22;31328;51.402;0.016;2023-04-28T08:48:40;16.30;99.90
24902;DHT22;31328;51.402;0.016;2023-04-28T08:51:07;16.40;99.90
24902;DHT22;31328;51.402;0.016;2023-04-28T08:53:38;16.50;99.90
24902;DHT22;31328;51.402;0.016;2023-04-28T08:56:05;16.60;99.90
24902;DHT22;31328;51.402;0.016;2023-04-28T08:58:35;16.70;99.90
24902;DHT22;31328;51.402;0.016;2023-04-28T09:01:02;16.70;99.90
24902;DHT22;31328;51.402;0.016;2023-04-28T09:03:30;16.70;99.90
24902;DHT22;31328;51.402;0.016;2023-04-28T09:05:58;16.80;99.90
24902;DHT22;31328;51.402;0.016;2023-04-28T09:08:24;16.80;99.90
24902;DHT22;31328;51.402;0.016;2023-04-28T09:11:07;16.70;99.90
24902;DHT22;31328;51.402;0.016;2023-04-28T09:13:34;16.70;99.90
24902;DHT22;31328;51.402;0.016;2023-04-28T09:16:02;16.60;99.90
24902;DHT22;31328;51.402;0.016;2023-04-28T09:18:29;16.60;99.90
24902;DHT22;31328;51.402;0.016;2023-04-28T09:21:06;16.50;99.90
24902;DHT22;31328;51.402;0.016;2023-04-28T09:23:33;16.60;99.90
24902;DHT22;31328;51.402;0.016;2023-04-28T09:26:02;16.60;99.90
24902;DHT22;31328;51.402;0.016;2023-04-28T09:28:30;16.70;99.90
24902;DHT22;31328;51.402;0.016;2023-04-28T09:30:56;16.90;99.90
24902;DHT22;31328;51.402;0.016;2023-04-28T09:33:23;17.00;99.90
24902;DHT22;31328;51.402;0.016;2023-04-28T09:35:49;17.10;99.90
24902;DHT22;31328;51.402;0.016;2023-04-28T09:38:18;17.30;99.90
24902;DHT22;31328;51.402;0.016;2023-04-28T09:41:00;17.30;99.90
24902;DHT22;31328;51.402;0.016;2023-04-28T09:43:27;17.30;99.90
24902;DHT22;31328;51.402;0.016;2023-04-28T09:45:55;17.20;99.90
24902;DHT22;31328;51.402;0.016;2023-04-28T09:48:33;17.10;99.90
24902;DHT22;31328;51.402;0.016;2023-04-28T09:51:01;17.00;99.90
24902;DHT22;31328;51.402;0.016;2023-04-28T09:53:29;16.90;99.90
24902;DHT22;31328;51.402;0.016;2023-04-28T09:55:56;16.70;99.90
24902;DHT22;31328;51.402;0.016;2023-04-28T09:58:25;16.50;99.90
24902;DHT22;31328;51.402;0.016;2023-04-28T10:00:56;16.40;99.90
24902;DHT22;31328;51.402;0.016;2023-04-28T10:03:27;16.30;99.90
24902;DHT22;31328;51.402;0.016;2023-04-28T10:05:54;16.20;99.90
24902;DHT22;31328;51.402;0.016;2023-04-28T10:08:22;16.20;99.90
24902;DHT22;31328;51.402;0.016;2023-04-28T10:10:49;16.20;99.90
24902;DHT22;31328;51.402;0.016;2023-04-28T10:13:18;16.30;99.90
24902;DHT22;31328;51.402;0.016;2023-04-28T10:15:45;16.30;99.90
24902;DHT22;31328;51.402;0.016;2023-04-28T10:18:13;16.40;99.90
24902;DHT22;31328;51.402;0.016;2023-04-28T10:20:45;16.40;99.90
24902;DHT22;31328;51.402;0.016;2023-04-28T10:23:23;16.40;99.90
24902;DHT22;31328;51.402;0.016;2023-04-28T10:25:54;16.40;99.90
24902;DHT22;31328;51.402;0.016;2023-04-28T10:28:22;16.40;99.90
24902;DHT22;31328;51.402;0.016;2023-04-28T10:31:09;16.30;99.90
24902;DHT22;31328;51.402;0.016;2023-04-28T10:33:39;16.20;99.90
24902;DHT22;31328;51.402;0.016;2023-04-28T10:36:06;16.20;99.90
24902;DHT22;31328;51.402;0.016;2023-04-28T10:38:34;16.30;99.90
24902;DHT22;31328;51.402;0.016;2023-04-28T10:41:01;16.40;99.90
24902;DHT22;31328;51.402;0.016;2023-04-28T10:45:58;16.80;99.90
24902;DHT22;31328;51.402;0.016;2023-04-28T10:56:20;17.00;99.90
24902;DHT22;31328;51.402;0.016;2023-04-28T10:58:56;17.00;99.90
24902;DHT22;31328;51.402;0.016;2023-04-28T11:01:27;17.00;99.90
24902;DHT22;31328;51.402;0.016;2023-04-28T11:04:04;16.90;99.90
24902;DHT22;31328;51.402;0.016;2023-04-28T11:06:43;16.80;99.90
24902;DHT22;31328;51.402;0.016;2023-04-28T11:16:56;16.50;99.90
24902;DHT22;31328;51.402;0.016;2023-04-28T11:19:28;16.50;99.90
24902;DHT22;31328;51.402;0.016;2023-04-28T11:21:56;16.60;99.90
24902;DHT22;31328;51.402;0.016;2023-04-28T11:24:24;16.70;99.90
24902;DHT22;31328;51.402;0.016;2023-04-28T11:26:51;16.90;99.90
24902;DHT22;31328;51.402;0.016;2023-04-28T11:29:37;16.90;99.90
24902;DHT22;31328;51.402;0.016;2023-04-28T11:32:04;17.00;99.90
24902;DHT22;31328;51.402;0.016;2023-04-28T11:34:32;17.00;99.90
24902;DHT22;31328;51.402;0.016;2023-04-28T11:36:58;17.00;99.90
24902;DHT22;31328;51.402;0.016;2023-04-28T11:39:30;17.10;99.90
24902;DHT22;31328;51.402;0.016;2023-04-28T11:41:58;17.10;99.90
24902;DHT22;31328;51.402;0.016;2023-04-28T11:44:26;17.30;99.90
24902;DHT22;31328;51.402;0.016;2023-04-28T11:46:54;17.40;99.90
24902;DHT22;31328;51.402;0.016;2023-04-28T11:49:22;17.60;99.90
24902;DHT22;31328;51.402;0.016;2023-04-28T11:51:56;17.70;99.90
24902;DHT22;31328;51.402;0.016;2023-04-28T11:54:27;17.80;99.90
24902;DHT22;31328;51.402;0.016;2023-04-28T11:56:55;17.90;99.90
24902;DHT22;31328;51.402;0.016;2023-04-28T11:59:26;17.90;99.90
24902;DHT22;31328;51.402;0.016;2023-04-28T12:01:58;17.80;99.90
24902;DHT22;31328;51.402;0.016;2023-04-28T12:04:35;17.70;99.90
24902;DHT22;31328;51.402;0.016;2023-04-28T12:07:07;17.50;99.90
24902;DHT22;31328;51.402;0.016;2023-04-28T12:09:42;17.40;99.90
24902;DHT22;31328;51.402;0.016;2023-04-28T12:12:29;17.20;99.90
24902;DHT22;31328;51.402;0.016;2023-04-28T12:15:06;17.10;99.90
24902;DHT22;31328;51.402;0.016;2023-04-28T12:20:02;17.00;99.90
24902;DHT22;31328;51.402;0.016;2023-04-28T12:22:30;17.00;99.90
24902;DHT22;31328;51.402;0.016;2023-04-28T12:25:13;17.20;99.90
24902;DHT22;31328;51.402;0.016;2023-04-28T12:28:00;17.40;99.90
24902;DHT22;31328;51.402;0.016;2023-04-28T12:30:31;17.50;99.90
24902;DHT22;31328;51.402;0.016;2023-04-28T12:32:58;17.60;99.90
24902;DHT22;31328;51.402;0.016;2023-04-28T12:35:25;17.70;99.90
24902;DHT22;31328;51.402;0.016;2023-04-28T12:37:52;17.80;99.90
24902;DHT22;31328;51.402;0.016;2023-04-28T12:40:20;17.90;99.80
24902;DHT22;31328;51.402;0.016;2023-04-28T12:42:47;18.00;99.60
24902;DHT22;31328;51.402;0.016;2023-04-28T12:45:13;18.10;99.60
24902;DHT22;31328;51.402;0.016;2023-04-28T12:47:41;18.20;99.30
24902;DHT22;31328;51.402;0.016;2023-04-28T12:50:08;18.30;99.20
24902;DHT22;31328;51.402;0.016;2023-04-28T12:52:34;18.30;99.00
24902;DHT22;31328;51.402;0.016;2023-04-28T12:55:03;18.30;99.20
24902;DHT22;31328;51.402;0.016;2023-04-28T12:57:29;18.30;98.80
24902;DHT22;31328;51.402;0.016;2023-04-28T12:59:56;18.40;98.80
24902;DHT22;31328;51.402;0.016;2023-04-28T13:02:23;18.40;98.90
24902;DHT22;31328;51.402;0.016;2023-04-28T13:04:49;18.40;98.80
24902;DHT22;31328;51.402;0.016;2023-04-28T13:07:17;18.50;98.80
24902;DHT22;31328;51.402;0.016;2023-04-28T13:09:43;18.60;98.80
24902;DHT22;31328;51.402;0.016;2023-04-28T13:12:10;18.60;98.60
24902;DHT22;31328;51.402;0.016;2023-04-28T13:14:39;18.70;98.30
24902;DHT22;31328;51.402;0.016;2023-04-28T13:17:05;18.70;98.10
24902;DHT22;31328;51.402;0.016;2023-04-28T13:19:33;18.70;98.00
24902;DHT22;31328;51.402;0.016;2023-04-28T13:21:59;18.60;97.80
24902;DHT22;31328;51.402;0.016;2023-04-28T13:24:26;18.60;97.90
24902;DHT22;31328;51.402;0.016;2023-04-28T13:26:52;18.50;98.00
24902;DHT22;31328;51.402;0.016;2023-04-28T13:29:19;18.50;98.30
24902;DHT22;31328;51.402;0.016;2023-04-28T13:31:45;18.50;97.90
24902;DHT22;31328;51.402;0.016;2023-04-28T13:34:11;18.50;97.80
24902;DHT22;31328;51.402;0.016;2023-04-28T13:36:43;18.50;97.80
24902;DHT22;31328;51.402;0.016;2023-04-28T13:39:10;18.50;97.80
24902;DHT22;31328;51.402;0.016;2023-04-28T13:41:38;18.50;97.80
24902;DHT22;31328;51.402;0.016;2023-04-28T13:44:04;18.50;97.80
24902;DHT22;31328;51.402;0.016;2023-04-28T13:46:31;18.60;97.80
24902;DHT22;31328;51.402;0.016;2023-04-28T13:48:57;18.60;97.80
24902;DHT22;31328;51.402;0.016;2023-04-28T13:51:23;18.60;97.60
24902;DHT22;31328;51.402;0.016;2023-04-28T13:53:50;18.70;97.50
24902;DHT22;31328;51.402;0.016;2023-04-28T13:56:16;18.80;97.40
24902;DHT22;31328;51.402;0.016;2023-04-28T13:58:42;18.80;97.00
24902;DHT22;31328;51.402;0.016;2023-04-28T14:01:09;18.80;97.00
24902;DHT22;31328;51.402;0.016;2023-04-28T14:03:35;18.80;96.80
24902;DHT22;31328;51.402;0.016;2023-04-28T14:06:01;18.80;96.80
24902;DHT22;31328;51.402;0.016;2023-04-28T14:08:28;18.80;96.90
24902;DHT22;31328;51.402;0.016;2023-04-28T14:10:54;18.70;96.70
24902;DHT22;31328;51.402;0.016;2023-04-28T14:13:21;18.60;96.60
24902;DHT22;31328;51.402;0.016;2023-04-28T14:15:52;18.50;96.40
24902;DHT22;31328;51.402;0.016;2023-04-28T14:18:21;18.40;96.40
24902;DHT22;31328;51.402;0.016;2023-04-28T14:20:48;18.30;96.40
24902;DHT22;31328;51.402;0.016;2023-04-28T14:23:14;18.40;96.60
24902;DHT22;31328;51.402;0.016;2023-04-28T14:25:41;18.50;96.40
24902;DHT22;31328;51.402;0.016;2023-04-28T14:28:08;18.60;96.10
24902;DHT22;31328;51.402;0.016;2023-04-28T14:30:34;18.80;95.80
24902;DHT22;31328;51.402;0.016;2023-04-28T14:33:01;18.80;95.50
24902;DHT22;31328;51.402;0.016;2023-04-28T14:35:27;18.80;95.40
24902;DHT22;31328;51.402;0.016;2023-04-28T14:37:56;18.80;95.30
24902;DHT22;31328;51.402;0.016;2023-04-28T14:40:22;18.80;95.20
24902;DHT22;31328;51.402;0.016;2023-04-28T14:42:48;18.70;95.30
24902;DHT22;31328;51.402;0.016;2023-04-28T14:45:15;18.70;95.40
24902;DHT22;31328;51.402;0.016;2023-04-28T14:47:41;18.60;95.40
24902;DHT22;31328;51.402;0.016;2023-04-28T14:50:08;18.60;95.40
24902;DHT22;31328;51.402;0.016;2023-04-28T14:52:34;18.50;95.20
24902;DHT22;31328;51.402;0.016;2023-04-28T14:55:01;18.50;95.20
24902;DHT22;31328;51.402;0.016;2023-04-28T14:57:30;18.50;95.10
24902;DHT22;31328;51.402;0.016;2023-04-28T14:59:56;18.50;95.10
24902;DHT22;31328;51.402;0.016;2023-04-28T15:02:23;18.50;95.00
24902;DHT22;31328;51.402;0.016;2023-04-28T15:04:55;18.60;95.00
24902;DHT22;31328;51.402;0.016;2023-04-28T15:07:22;18.60;95.00
24902;DHT22;31328;51.402;0.016;2023-04-28T15:09:49;18.70;94.90
24902;DHT22;31328;51.402;0.016;2023-04-28T15:12:16;18.80;94.90
24902;DHT22;31328;51.402;0.016;2023-04-28T15:14:42;18.80;94.80
24902;DHT22;31328;51.402;0.016;2023-04-28T15:17:09;18.90;94.60
24902;DHT22;31328;51.402;0.016;2023-04-28T15:19:35;18.90;94.60
24902;DHT22;31328;51.402;0.016;2023-04-28T15:22:02;18.90;94.50
24902;DHT22;31328;51.402;0.016;2023-04-28T15:24:28;18.90;94.40
24902;DHT22;31328;51.402;0.016;2023-04-28T15:26:55;19.00;94.40
24902;DHT22;31328;51.402;0.016;2023-04-28T15:29:21;18.90;94.40
24902;DHT22;31328;51.402;0.016;2023-04-28T15:31:47;18.90;94.40
24902;DHT22;31328;51.402;0.016;2023-04-28T15:34:14;18.90;94.40
24902;DHT22;31328;51.402;0.016;2023-04-28T15:36:41;18.90;94.40
24902;DHT22;31328;51.402;0.016;2023-04-28T15:39:08;18.90;94.50
24902;DHT22;31328;51.402;0.016;2023-04-28T15:41:35;18.90;94.40
24902;DHT22;31328;51.402;0.016;2023-04-28T15:44:01;18.80;94.40
24902;DHT22;31328;51.402;0.016;2023-04-28T15:46:28;18.80;94.30
24902;DHT22;31328;51.402;0.016;2023-04-28T15:48:55;18.80;94.20
24902;DHT22;31328;51.402;0.016;2023-04-28T15:51:21;18.80;94.30
24902;DHT22;31328;51.402;0.016;2023-04-28T15:53:48;18.70;94.10